Decoy, Kentucky
Current Conditions -  °F | °C
As of 7:53 AM on Sunday 23 Nov 2014 (Local Time) from KJKL Reporting Station
Clear Clear  
Wind Chill: 47°   Ceiling: Unl
Heat Index: 49°   Visibility: 10mi
Dew Point: 32°   Wind: 5mph
Humidity: 52%   Direction: 120°ESE
Pressure: 30.04"   Gusts: NA
Location:  37.532°N, 83.3068°W
Report Text: KJKL 231253Z AUTO 12004KT 10SM CLR 09/00 A3004 RMK AO2 SLP169 T00940000
Loading
Personal Weather Stations






























Interactive Weather Map New forecast layout! Learn more

10-Day Weather Forecast

Advertisements
Track Severe Weather on mobile